THY7JV LTFM-LFMN
Flight info
| Callsign | THY7JV |
|---|---|
| Flight time | N/A |
| Altitude | 40000 |
| Route | VADEN N618 BAKLO/N0485F430 N618 GOL DCT DOLAP DCT VELIT DCT KEMIX DCT XAMIT/N0481F410 DCT NIKMA DCT KARDU DCT TOBGA/N0435F300 DCT DOBIM DCT AKUTI R16 KERIT |
| Aircraft | A359/H-SDE2E3GHIJ3J4J5LM1ORWXY/LB1D1 |
Departure
| Time | 2026-05-07 05:40 |
|---|---|
| Airport | İstanbul Airport (LTFM) |
Arrival
| Time | N/A |
|---|---|
| Airport | Nice-Côte d'Azur Airport (LFMN) |
| Time | Latitude | Longitude | Altitude | Speed | Heading |
|---|---|---|---|---|---|
| 2026-05-07 05:31 | 41.26714 | 28.74721 | 337 ft | 0 kts | 91° |
| 2026-05-07 05:33 | 41.26715 | 28.74700 | 339 ft | 6 kts | 91° |
| 2026-05-07 05:33 | 41.26718 | 28.74641 | 335 ft | 7 kts | 118° |
| 2026-05-07 05:33 | 41.26760 | 28.74612 | 335 ft | 7 kts | 180° |
| 2026-05-07 05:33 | 41.26773 | 28.74611 | 335 ft | 0 kts | 180° |
| 2026-05-07 05:34 | 41.26771 | 28.74612 | 335 ft | 1 kts | 179° |
| 2026-05-07 05:34 | 41.26726 | 28.74612 | 335 ft | 11 kts | 179° |
| 2026-05-07 05:35 | 41.26639 | 28.74614 | 338 ft | 15 kts | 179° |
| 2026-05-07 05:35 | 41.26574 | 28.74579 | 336 ft | 6 kts | 248° |
| 2026-05-07 05:35 | 41.26570 | 28.74513 | 336 ft | 9 kts | 268° |
| 2026-05-07 05:35 | 41.26611 | 28.74468 | 336 ft | 10 kts | 354° |
| 2026-05-07 05:36 | 41.26714 | 28.74470 | 336 ft | 17 kts | 359° |
| 2026-05-07 05:36 | 41.26841 | 28.74466 | 337 ft | 20 kts | 358° |
| 2026-05-07 05:36 | 41.26945 | 28.74469 | 338 ft | 13 kts | 17° |
| 2026-05-07 05:36 | 41.26974 | 28.74577 | 339 ft | 15 kts | 90° |
| 2026-05-07 05:37 | 41.26975 | 28.74751 | 337 ft | 22 kts | 89° |
| 2026-05-07 05:37 | 41.26978 | 28.74968 | 340 ft | 25 kts | 89° |
| 2026-05-07 05:37 | 41.26981 | 28.75207 | 337 ft | 27 kts | 89° |
| 2026-05-07 05:37 | 41.26966 | 28.75363 | 339 ft | 7 kts | 136° |
| 2026-05-07 05:38 | 41.26912 | 28.75376 | 338 ft | 13 kts | 178° |
| 2026-05-07 05:38 | 41.26789 | 28.75378 | 336 ft | 21 kts | 179° |
| 2026-05-07 05:38 | 41.26635 | 28.75382 | 336 ft | 24 kts | 178° |
| 2026-05-07 05:38 | 41.26461 | 28.75386 | 336 ft | 26 kts | 179° |
| 2026-05-07 05:39 | 41.26343 | 28.75417 | 336 ft | 4 kts | 122° |
| 2026-05-07 05:39 | 41.26337 | 28.75498 | 340 ft | 15 kts | 91° |
| 2026-05-07 05:39 | 41.26344 | 28.75643 | 336 ft | 11 kts | 65° |
| 2026-05-07 05:39 | 41.26380 | 28.75664 | 337 ft | 9 kts | 5° |
| 2026-05-07 05:40 | 41.26521 | 28.75664 | 336 ft | 50 kts | 359° |
| 2026-05-07 05:40 | 41.27151 | 28.75652 | 338 ft | 128 kts | 359° |
| 2026-05-07 05:40 | 41.28175 | 28.75634 | 605 ft | 165 kts | 359° |
| 2026-05-07 05:40 | 41.29315 | 28.75619 | 1558 ft | 163 kts | 358° |
| 2026-05-07 05:41 | 41.30463 | 28.76076 | 2117 ft | 189 kts | 30° |
| 2026-05-07 05:41 | 41.31674 | 28.77145 | 2432 ft | 228 kts | 33° |
| 2026-05-07 05:41 | 41.33082 | 28.78378 | 2999 ft | 252 kts | 31° |
| 2026-05-07 05:41 | 41.34589 | 28.79606 | 3929 ft | 259 kts | 29° |
| 2026-05-07 05:42 | 41.36155 | 28.80839 | 4943 ft | 262 kts | 28° |
| 2026-05-07 05:42 | 41.37765 | 28.82010 | 5966 ft | 264 kts | 21° |
| 2026-05-07 05:42 | 41.39557 | 28.82438 | 7003 ft | 261 kts | 355° |
| 2026-05-07 05:42 | 41.41375 | 28.82255 | 8060 ft | 263 kts | 352° |
| 2026-05-07 05:43 | 41.43191 | 28.82000 | 9140 ft | 267 kts | 352° |
| 2026-05-07 05:43 | 41.45051 | 28.81747 | 10228 ft | 271 kts | 353° |
| 2026-05-07 05:43 | 41.47001 | 28.81492 | 10835 ft | 294 kts | 353° |
| 2026-05-07 05:43 | 41.49119 | 28.81223 | 11365 ft | 314 kts | 354° |
| 2026-05-07 05:44 | 41.51326 | 28.80949 | 12257 ft | 322 kts | 354° |
| 2026-05-07 05:44 | 41.53560 | 28.80560 | 13235 ft | 327 kts | 348° |
| 2026-05-07 05:44 | 41.55752 | 28.79674 | 14169 ft | 332 kts | 339° |
| 2026-05-07 05:44 | 41.57856 | 28.78344 | 15050 ft | 337 kts | 331° |
| 2026-05-07 05:45 | 41.59827 | 28.76609 | 15966 ft | 340 kts | 323° |
| 2026-05-07 05:45 | 41.61607 | 28.74503 | 16888 ft | 344 kts | 315° |
| 2026-05-07 05:45 | 41.63161 | 28.72045 | 17815 ft | 348 kts | 307° |
| 2026-05-07 05:45 | 41.64442 | 28.69275 | 18702 ft | 353 kts | 300° |
| 2026-05-07 05:46 | 41.65451 | 28.66256 | 19497 ft | 358 kts | 294° |
| 2026-05-07 05:46 | 41.66349 | 28.63166 | 20304 ft | 362 kts | 294° |
| 2026-05-07 05:46 | 41.67258 | 28.59997 | 21126 ft | 366 kts | 294° |
| 2026-05-07 05:46 | 41.68178 | 28.56807 | 21948 ft | 370 kts | 294° |
| 2026-05-07 05:47 | 41.69113 | 28.53578 | 22756 ft | 373 kts | 294° |
| 2026-05-07 05:47 | 41.70056 | 28.50328 | 23554 ft | 377 kts | 294° |
| 2026-05-07 05:47 | 41.71013 | 28.47031 | 24245 ft | 381 kts | 294° |
| 2026-05-07 05:47 | 41.71977 | 28.43708 | 24929 ft | 384 kts | 294° |
| 2026-05-07 05:48 | 41.72946 | 28.40363 | 25611 ft | 387 kts | 294° |
| 2026-05-07 05:48 | 41.73923 | 28.36988 | 26285 ft | 390 kts | 294° |
| 2026-05-07 05:48 | 41.74905 | 28.33592 | 26938 ft | 393 kts | 294° |
| 2026-05-07 05:48 | 41.75895 | 28.30164 | 27606 ft | 396 kts | 294° |
| 2026-05-07 05:49 | 41.76891 | 28.26710 | 28253 ft | 399 kts | 294° |
| 2026-05-07 05:49 | 41.77884 | 28.23265 | 28888 ft | 402 kts | 294° |
| 2026-05-07 05:49 | 41.78895 | 28.19748 | 29503 ft | 406 kts | 294° |
| 2026-05-07 05:49 | 41.79913 | 28.16206 | 30103 ft | 409 kts | 294° |
| 2026-05-07 05:50 | 41.80939 | 28.12628 | 30614 ft | 412 kts | 294° |
| 2026-05-07 05:50 | 41.81974 | 28.09015 | 31084 ft | 416 kts | 294° |
| 2026-05-07 05:50 | 41.83014 | 28.05380 | 31545 ft | 420 kts | 294° |
| 2026-05-07 05:50 | 41.84063 | 28.01705 | 32001 ft | 423 kts | 294° |
| 2026-05-07 05:51 | 41.85121 | 27.97997 | 32445 ft | 426 kts | 293° |
| 2026-05-07 05:51 | 41.86190 | 27.94272 | 32890 ft | 429 kts | 294° |
| 2026-05-07 05:51 | 41.87316 | 27.90543 | 33337 ft | 432 kts | 295° |
| 2026-05-07 05:51 | 41.88502 | 27.86832 | 33756 ft | 435 kts | 296° |
| 2026-05-07 05:52 | 41.89720 | 27.83106 | 34148 ft | 438 kts | 296° |
| 2026-05-07 05:52 | 41.90942 | 27.79382 | 34495 ft | 441 kts | 296° |
| 2026-05-07 05:52 | 41.92178 | 27.75593 | 34855 ft | 443 kts | 295° |
| 2026-05-07 05:52 | 41.93401 | 27.71806 | 35352 ft | 442 kts | 295° |
| 2026-05-07 05:53 | 41.94624 | 27.67998 | 35835 ft | 441 kts | 295° |
| 2026-05-07 05:53 | 41.95832 | 27.64215 | 36285 ft | 440 kts | 295° |
| 2026-05-07 05:53 | 41.97037 | 27.60430 | 36715 ft | 440 kts | 295° |
| 2026-05-07 05:53 | 41.98240 | 27.56644 | 37147 ft | 440 kts | 294° |
| 2026-05-07 05:54 | 41.99425 | 27.52910 | 37560 ft | 439 kts | 294° |
| 2026-05-07 05:54 | 42.00624 | 27.49127 | 37994 ft | 439 kts | 294° |
| 2026-05-07 05:54 | 42.01820 | 27.45349 | 38411 ft | 439 kts | 294° |
| 2026-05-07 05:54 | 42.03015 | 27.41569 | 38817 ft | 438 kts | 294° |
| 2026-05-07 05:55 | 42.04208 | 27.37790 | 39121 ft | 438 kts | 294° |
| 2026-05-07 05:55 | 42.05398 | 27.34015 | 39407 ft | 438 kts | 294° |
| 2026-05-07 05:55 | 42.06587 | 27.30240 | 39698 ft | 438 kts | 294° |
| 2026-05-07 05:55 | 42.07777 | 27.26457 | 39959 ft | 439 kts | 293° |
| 2026-05-07 05:56 | 42.08966 | 27.22672 | 40108 ft | 441 kts | 293° |
| 2026-05-07 05:56 | 42.11356 | 27.15045 | 40128 ft | 442 kts | 293° |
| 2026-05-07 05:57 | 42.13739 | 27.07414 | 40127 ft | 442 kts | 293° |
| 2026-05-07 05:57 | 42.16108 | 26.99812 | 40131 ft | 442 kts | 293° |
| 2026-05-07 05:58 | 42.18484 | 26.92164 | 40134 ft | 441 kts | 293° |
| 2026-05-07 05:58 | 42.20849 | 26.84528 | 40136 ft | 441 kts | 293° |
| 2026-05-07 05:59 | 42.23206 | 26.76897 | 40139 ft | 440 kts | 293° |
| 2026-05-07 05:59 | 42.25509 | 26.69419 | 40140 ft | 440 kts | 292° |
| 2026-05-07 06:00 | 42.27852 | 26.61790 | 40140 ft | 439 kts | 292° |
| 2026-05-07 06:00 | 42.30174 | 26.54207 | 40141 ft | 439 kts | 292° |
| 2026-05-07 06:01 | 42.32513 | 26.46546 | 40141 ft | 438 kts | 292° |
| 2026-05-07 06:01 | 42.34819 | 26.38974 | 40138 ft | 437 kts | 292° |
| 2026-05-07 06:02 | 42.37124 | 26.31381 | 40138 ft | 437 kts | 292° |
| 2026-05-07 06:02 | 42.39427 | 26.23770 | 40138 ft | 436 kts | 292° |
| 2026-05-07 06:03 | 42.41721 | 26.16171 | 40138 ft | 436 kts | 292° |
| 2026-05-07 06:03 | 42.44008 | 26.08570 | 40136 ft | 435 kts | 292° |
| 2026-05-07 06:04 | 42.46275 | 26.01013 | 40126 ft | 435 kts | 292° |
| 2026-05-07 06:04 | 42.48550 | 25.93407 | 40120 ft | 435 kts | 292° |
| 2026-05-07 06:05 | 42.50822 | 25.85793 | 40115 ft | 435 kts | 291° |
| 2026-05-07 06:05 | 42.53087 | 25.78176 | 40111 ft | 435 kts | 291° |
| 2026-05-07 06:06 | 42.55336 | 25.70590 | 40105 ft | 435 kts | 291° |
| 2026-05-07 06:06 | 42.57593 | 25.62957 | 40098 ft | 435 kts | 291° |